Kezdőlap
METAR-TAF:

METAR-TAF

Repülőterek :

Payerne, Svájc

földrajzi szélesség: 46-49N, földrajzi hosszúság: 006-57E, magasság: 490 m

Jelenlegi meteorológiai megfigyelések

A jelentés 37 perccel ezelõtt készült, 19:20 UTC
Délnyugati szél 6 kt
Hőmérséklet 5°C
Páratartalom 75%
Légköri nyomás 1028 hPa
Látótávolság 10 km, vagy több
Kevés felhő 5800 lábon
Borult 6700 lábon

METAR: LSMP 191920Z 23006KT 9999 FEW058 OVC067 05/01 Q1028 RMK BLU

Idő: 20:57 (19:57 UTC)


TAF: hiányzik

Meteorológiai megfigyelések és előrejelzések több, mint 4000 repülőtéren (METAR és TAF jelentéseket).

A térképen piros és sárga pontok jelzik az elérhető meteorológiai állomásokat.

Mozgassa az egeret a pont fölött, hogy megjelenjen az állomás neve.

Azután kattintson az időjárási megfigyelések és előrejelzések megtekintéséhez.

A térkép megváltoztatása: kattintson a fekete keresztel jelölt zöld gombra ráközelítéshez, a vonallal jelölt zöld gombra távolításhoz, vagy a zöld nyilakra a szomszédos térképek eléréséhez.


METAR-TAF: